createdAt,value
2023-03-23T15:58:18.287Z,96485.63
2023-03-23T16:00:44.955Z,96482.47
2023-03-23T16:03:14.393Z,96479.44
2023-03-23T16:05:41.379Z,96471.31
2023-03-23T16:08:11.030Z,96480.53
2023-03-23T16:10:37.686Z,96489.25
2023-03-23T16:13:04.342Z,96483.88
2023-03-23T16:15:31.149Z,96485.75
2023-03-23T16:17:57.902Z,96474.13
2023-03-23T16:20:24.893Z,96474.13
2023-03-23T16:22:51.880Z,96478.75
2023-03-23T16:25:18.784Z,96468.31
2023-03-23T16:27:45.521Z,96467.69
2023-03-23T16:30:34.031Z,96466.28
2023-03-23T16:33:00.763Z,96458.84
2023-03-23T16:35:27.475Z,96457.97
2023-03-23T16:38:07.974Z,96456.31
2023-03-23T16:40:36.564Z,96460.53
2023-03-23T16:43:08.757Z,96467.00
2023-03-23T16:45:37.378Z,96470.34
2023-03-23T16:48:04.145Z,96469.72
2023-03-23T16:50:30.879Z,96462.47
2023-03-23T16:52:57.581Z,96462.44
2023-03-23T16:55:24.270Z,96470.22
2023-03-23T16:57:50.954Z,96455.69
2023-03-23T17:00:18.178Z,96456.34
2023-03-23T17:02:45.009Z,96461.53
2023-03-23T17:05:12.239Z,96445.38
2023-03-23T17:07:39.606Z,96444.19
2023-03-23T17:10:06.795Z,96435.72
2023-03-23T17:12:33.554Z,96425.09
2023-03-23T17:15:00.191Z,96430.09
2023-03-23T17:17:26.885Z,96428.69
2023-03-23T17:19:53.526Z,96426.81
2023-03-23T17:22:20.183Z,96421.88
2023-03-23T17:24:46.821Z,96428.91
2023-03-23T17:27:15.287Z,96426.47
2023-03-23T17:29:41.932Z,96433.25
2023-03-23T17:32:08.632Z,96426.97
2023-03-23T17:34:35.293Z,96425.69
2023-03-23T17:37:02.024Z,96422.34
2023-03-23T17:39:30.077Z,96429.34
2023-03-23T17:41:56.710Z,96427.47
2023-03-23T17:44:23.356Z,96425.63
2023-03-23T17:46:50.095Z,96433.34
2023-03-23T17:49:16.783Z,96432.00
2023-03-23T17:51:44.541Z,96436.16
2023-03-23T17:54:11.349Z,96432.06
2023-03-23T17:56:38.096Z,96431.88
2023-03-23T17:59:04.754Z,96426.88
2023-03-23T18:01:31.461Z,96418.81
2023-03-23T18:03:58.189Z,96424.78
2023-03-23T18:06:24.844Z,96415.63
2023-03-23T18:08:52.410Z,96418.28
2023-03-23T18:11:19.183Z,96412.88
2023-03-23T18:13:45.840Z,96412.38
2023-03-23T18:16:12.487Z,96423.06
2023-03-23T18:18:39.179Z,96431.25
2023-03-23T18:21:08.262Z,96424.81
2023-03-23T18:23:39.095Z,96419.63
2023-03-23T18:26:11.369Z,96418.53
2023-03-23T18:28:38.036Z,96416.09
2023-03-23T18:31:06.507Z,96412.88
2023-03-23T18:33:33.394Z,96410.41
2023-03-23T18:36:00.737Z,96412.38
2023-03-23T18:38:28.421Z,96408.38
2023-03-23T18:40:55.125Z,96420.94
2023-03-23T18:43:21.847Z,96420.31
2023-03-23T18:45:52.854Z,96425.03
2023-03-23T18:48:19.506Z,96422.31
2023-03-23T18:50:47.633Z,96417.53
2023-03-23T18:53:14.270Z,96422.09
2023-03-23T18:55:41.030Z,96411.91
2023-03-23T18:58:07.670Z,96418.31
2023-03-23T19:00:34.314Z,96408.16
2023-03-23T19:03:01.067Z,96407.41
2023-03-23T19:05:27.719Z,96400.97
2023-03-23T19:07:54.352Z,96412.25
2023-03-23T19:10:21.300Z,96403.53
2023-03-23T19:12:48.744Z,96398.47
2023-03-23T19:15:15.501Z,96410.28
2023-03-23T19:17:42.711Z,96399.47
2023-03-23T19:22:38.746Z,96400.41
2023-03-23T19:25:06.510Z,96396.66
2023-03-23T19:27:33.405Z,96388.72
2023-03-23T19:30:00.177Z,96388.72
2023-03-23T19:32:26.903Z,96389.84
2023-03-23T19:34:53.555Z,96385.50
2023-03-23T19:37:23.302Z,96385.53
2023-03-23T19:39:50.060Z,96384.06
2023-03-23T19:42:16.787Z,96367.31
2023-03-23T19:44:43.487Z,96378.50
2023-03-23T19:47:10.667Z,96374.78
2023-03-23T19:49:37.367Z,96369.38
2023-03-23T19:52:06.498Z,96363.38
2023-03-23T19:54:37.199Z,96354.47
2023-03-23T19:57:04.098Z,96356.72
2023-03-23T19:59:30.883Z,96371.47
2023-03-23T20:01:57.965Z,96358.38
2023-03-23T20:04:25.557Z,96364.88
2023-03-23T20:06:52.422Z,96367.59
2023-03-23T20:09:19.082Z,96364.63
2023-03-23T20:11:45.737Z,96376.25
2023-03-23T20:14:12.391Z,96379.94
2023-03-23T20:16:39.046Z,96360.41
2023-03-23T20:19:05.983Z,96346.72
2023-03-23T20:21:33.074Z,96356.03
2023-03-23T20:24:00.370Z,96350.06
2023-03-23T20:26:45.073Z,96349.09
2023-03-23T20:29:11.743Z,96352.59
2023-03-23T20:31:39.818Z,96359.28
2023-03-23T20:34:10.964Z,96349.91
2023-03-23T20:36:42.063Z,96354.47
2023-03-23T20:39:17.075Z,96351.47
2023-03-23T20:41:43.861Z,96349.19
2023-03-23T20:44:11.510Z,96364.47
2023-03-23T20:46:38.184Z,96369.84
2023-03-23T20:49:04.942Z,96373.22
2023-03-23T20:51:31.812Z,96380.31
2023-03-23T20:53:58.544Z,96381.75
2023-03-23T20:56:25.256Z,96383.00
2023-03-23T20:58:51.956Z,96388.81
2023-03-23T21:01:18.641Z,96391.88
2023-03-23T21:03:45.335Z,96392.97
2023-03-23T21:06:12.099Z,96389.38
2023-03-23T21:08:39.933Z,96403.81
2023-03-23T21:11:08.498Z,96412.16
2023-03-23T21:13:35.182Z,96439.25
2023-03-23T21:16:02.094Z,96446.94
2023-03-23T21:18:29.101Z,96475.50
2023-03-23T21:20:56.087Z,96501.81
2023-03-23T21:23:23.238Z,96497.25
2023-03-23T21:25:50.003Z,96503.28
2023-03-23T21:28:16.685Z,96507.63
2023-03-23T21:30:43.516Z,96515.94
2023-03-23T21:33:10.365Z,96515.09
2023-03-23T21:35:37.043Z,96514.69
2023-03-23T21:38:03.703Z,96501.66
2023-03-23T21:40:30.688Z,96509.31
2023-03-23T21:42:57.322Z,96487.16
2023-03-23T21:45:23.958Z,96492.13
2023-03-23T21:47:50.704Z,96508.47
2023-03-23T21:50:17.427Z,96495.22
2023-03-23T21:52:44.137Z,96495.66
2023-03-23T21:55:12.087Z,96493.78
2023-03-23T21:57:39.606Z,96464.59
2023-03-23T22:00:07.202Z,96446.78
2023-03-23T22:02:33.848Z,96439.09
2023-03-23T22:05:00.547Z,96419.41
2023-03-23T22:07:27.924Z,96394.94
2023-03-23T22:09:55.810Z,96399.47
2023-03-23T22:12:22.579Z,96369.84
2023-03-23T22:14:49.250Z,96361.31
2023-03-23T22:17:15.933Z,96342.28
2023-03-23T22:19:42.585Z,96333.31
2023-03-23T22:22:09.283Z,96333.16
2023-03-23T22:24:35.930Z,96337.88
2023-03-23T22:27:02.568Z,96327.44
2023-03-23T22:29:29.215Z,96333.50
2023-03-23T22:31:55.866Z,96324.28
2023-03-23T22:34:22.511Z,96305.31
2023-03-23T22:36:49.150Z,96289.78
2023-03-23T22:39:15.827Z,96300.09
2023-03-23T22:41:42.491Z,96302.72
2023-03-23T22:44:16.299Z,96298.88
2023-03-23T22:46:43.010Z,96289.75
2023-03-23T22:49:09.837Z,96284.44
2023-03-23T22:51:36.716Z,96280.56
2023-03-23T22:54:04.455Z,96282.28
2023-03-23T22:56:31.164Z,96265.38
2023-03-23T22:58:57.810Z,96276.56
2023-03-23T23:01:24.483Z,96275.31
2023-03-23T23:03:51.246Z,96284.66
2023-03-23T23:06:18.219Z,96282.19
2023-03-23T23:08:45.074Z,96281.75
2023-03-23T23:11:16.585Z,96294.16
2023-03-23T23:13:43.218Z,96302.38
2023-03-23T23:16:10.451Z,96324.72
2023-03-23T23:18:37.205Z,96332.75
2023-03-23T23:21:08.929Z,96340.31
2023-03-23T23:23:35.610Z,96331.53
2023-03-23T23:26:02.687Z,96348.50
2023-03-23T23:28:29.347Z,96348.19
2023-03-23T23:30:56.076Z,96362.53
2023-03-23T23:33:22.815Z,96375.38
2023-03-23T23:35:49.623Z,96367.34
2023-03-23T23:38:16.427Z,96406.72
2023-03-23T23:40:43.691Z,96402.41
2023-03-23T23:43:14.583Z,96415.06
2023-03-23T23:45:41.398Z,96420.53
2023-03-23T23:48:08.133Z,96424.03
2023-03-23T23:50:34.801Z,96456.56
2023-03-23T23:53:01.459Z,96458.41
2023-03-23T23:55:28.103Z,96454.53
2023-03-23T23:57:54.979Z,96454.88
